Ana Sayfa
METAR-TAF:

METAR-TAF

Havaalanları :

El Salvador, El Salvador

Enlem: 13-26N, Boylam: 089-03W, yükseklik: 25 m

Güncel hava durumu gözlemi

Rapor saat 04:50 UTC de 40 dakika önce yapıldı.
Rüzgar kuzey/kuzeydoğudan 8 kt
Sıcaklık 26°C
Nem 51%
Basınç 1013 hPa
Görüş mesafesi 10 km veya daha fazla
1500 m altında bulut yok ve kümülonimbus yok

METAR: MSLP 200450Z 03008KT CAVOK 26/15 Q1012 A2991 NOSIG

Saat: 23:30 (05:30 UTC)

Tahmin

Rapor saat 21:25 UTC de 8 saat ve 5 dakika önce yapıldı.
Ayın 20'si saat 00 UTC'den ayın 20'si saat 24 UTC'ye kadar geçerli Tahmin
Rüzgar kuzey/kuzeydoğudan 12 kt ve 23 kt'a kadar ani rüzgarlar
Görüş mesafesi 10 km veya daha fazla
7000 ft yükseklikte az bulutlu
Geçici
ayın 20'si saat 19 UTC'den ayın 20'si saat 24 UTC'ye kadar
Rüzgar güney/güneybatıdan 8 kt
Görüş mesafesi 10 km veya daha fazla
6000 ft yükseklikte az bulutlu

TAF: MSLP 192125Z 2000/2024 02012G23KT 9999 FEW070 TX33/2018Z TN22/2012Z TEMPO 2019/2024 20008KT 9999 FEW060

4.000'den fazla havaalanı için hava durumu gözlemleri ve tahminleri (METAR ve TAF raporları).

Kullanılabilir istasyonlar harita üzerinde sarı ve kırmızı noktalarla gösterilir.

İstasyonun adını görmek için fareyi noktanın üzerinde gezdirin.

Sonrasında hava gözlem ve tahminlerini görmek için tıklayın.

Haritayı değiştirmek için: yaklaştırmak için siyah artı işaretli yeşil düğmeye ve uzaklaştırmak için de eksi işaretli düğmeye hızla tıklayın; bitişik haritalar için yeşil okları kullanın.


METAR-TAF: